Time;durP1;ratioP1;P1;durP2;ratioP2;P2;SDS_P1;SDS_P2;PMS_P1;PMS_P2;Temp;Humidity;BMP_temperature;BMP_pressure;BME280_temperature;BME280_humidity;BME280_pressure;Samples;Min_cycle;Max_cycle;Signal;HPM_P1;HPM_P2
2022/04/06 00:01:16;;;;;;;;;3.33;2.00;;;;;23.59;63.39;100787.91;5074811;28;50719;-65
2022/04/06 00:03:43;;;;;;;;;2.67;2.00;;;;;23.59;63.46;100792.41;5055530;28;45206;-65
2022/04/06 00:06:09;;;;;;;;;3.00;2.00;;;;;23.59;63.25;100793.28;5051123;28;45515;-66
2022/04/06 00:08:34;;;;;;;;;5.00;1.00;;;;;23.58;63.26;100785.28;5041149;28;46475;-65
2022/04/06 00:11:00;;;;;;;;;4.67;1.33;;;;;23.59;63.27;100784.34;5059013;28;45404;-67
2022/04/06 00:13:25;;;;;;;;;8.00;2.67;;;;;23.58;63.20;100780.75;5041019;28;45317;-65
2022/04/06 00:15:50;;;;;;;;;7.67;2.33;;;;;23.56;63.30;100777.28;5059035;28;45318;-65
2022/04/06 00:18:16;;;;;;;;;7.00;1.00;;;;;23.58;63.30;100782.59;5052402;28;46433;-67
2022/04/06 00:20:41;;;;;;;;;3.33;2.00;;;;;23.58;62.96;100775.38;5076709;28;58458;-66
2022/04/06 00:23:07;;;;;;;;;5.00;1.00;;;;;23.58;63.36;100774.50;5077855;28;45459;-66
2022/04/06 00:25:32;;;;;;;;;1.00;1.00;;;;;23.55;62.78;100770.13;5042833;28;45411;-66
2022/04/06 00:27:58;;;;;;;;;4.67;2.00;;;;;23.57;62.85;100764.66;5079439;28;46315;-67
2022/04/06 00:30:24;;;;;;;;;4.67;1.33;;;;;23.57;63.43;100770.94;5076266;28;45451;-65
2022/04/06 00:32:49;;;;;;;;;3.33;1.67;;;;;23.54;63.15;100765.66;5079337;28;45424;-65
2022/04/06 00:35:31;;;;;;;;;5.00;1.00;;;;;23.55;62.83;100772.81;5075871;28;45371;-66
2022/04/06 00:37:57;;;;;;;;;6.67;1.00;;;;;23.55;62.95;100764.75;5061820;28;45972;-67
2022/04/06 00:40:23;;;;;;;;;3.00;1.00;;;;;23.55;62.81;100758.47;5071689;28;45508;-68
2022/04/06 00:42:49;;;;;;;;;4.00;1.67;;;;;23.52;62.69;100748.69;5075244;28;45312;-67
2022/04/06 00:45:15;;;;;;;;;2.00;1.00;;;;;23.52;62.87;100757.66;5072308;28;45422;-66
2022/04/06 00:47:44;;;;;;;;;4.00;2.00;;;;;23.49;62.82;100749.72;5062176;28;47667;-67
2022/04/06 00:50:09;;;;;;;;;4.00;3.00;;;;;23.50;62.80;100750.59;5070628;28;45280;-66
2022/04/06 00:52:35;;;;;;;;;4.00;1.67;;;;;23.52;63.07;100751.38;5073730;28;45378;-66
2022/04/06 00:55:01;;;;;;;;;2.00;1.00;;;;;23.50;62.98;100747.91;5062002;28;45681;-66
2022/04/06 00:57:26;;;;;;;;;4.67;1.67;;;;;23.51;62.97;100746.94;5073745;28;50667;-67
2022/04/06 00:59:52;;;;;;;;;1.00;1.00;;;;;23.51;63.04;100741.56;5074534;28;47524;-66
2022/04/06 01:02:17;;;;;;;;;4.00;1.00;;;;;23.50;62.87;100737.13;5049492;28;45633;-66
2022/04/06 01:04:42;;;;;;;;;6.33;2.00;;;;;23.47;62.86;100730.03;5068379;28;45474;-66
2022/04/06 01:07:08;;;;;;;;;3.00;2.00;;;;;23.50;63.14;100729.91;5058153;28;46638;-66
2022/04/06 01:09:33;;;;;;;;;2.00;1.00;;;;;23.49;62.99;100733.53;5070669;28;45335;-66
2022/04/06 01:11:59;;;;;;;;;7.00;2.33;;;;;23.47;62.78;100727.31;5064672;28;48906;-66
2022/04/06 01:14:25;;;;;;;;;2.33;1.00;;;;;23.48;62.85;100721.00;5078658;28;45394;-65
2022/04/06 01:17:00;;;;;;;;;4.33;1.00;;;;;23.46;62.95;100725.59;5078210;28;50639;-65
2022/04/06 01:19:33;;;;;;;;;4.00;1.33;;;;;23.45;62.80;100721.13;5072339;28;45410;-66
2022/04/06 01:21:58;;;;;;;;;2.33;2.00;;;;;23.47;63.05;100730.03;5071937;28;45473;-65
2022/04/06 01:24:23;;;;;;;;;5.00;2.00;;;;;23.47;62.93;100719.25;5071427;28;45618;-65
2022/04/06 01:26:49;;;;;;;;;2.33;2.00;;;;;23.45;62.81;100710.34;5057920;28;46112;-67
2022/04/06 01:29:14;;;;;;;;;5.00;2.00;;;;;23.46;63.01;100717.50;5041824;28;45371;-65
2022/04/06 01:31:40;;;;;;;;;3.33;1.00;;;;;23.46;62.67;100709.41;5058575;28;45304;-65
2022/04/06 01:34:05;;;;;;;;;4.67;1.00;;;;;23.46;62.79;100705.84;5062095;28;45296;-65
2022/04/06 01:36:30;;;;;;;;;4.00;0.67;;;;;23.44;62.73;100719.41;5053457;28;47049;-67
2022/04/06 01:38:56;;;;;;;;;2.33;1.00;;;;;23.45;62.72;100722.97;5074089;28;45370;-65
2022/04/06 01:41:21;;;;;;;;;1.00;1.00;;;;;23.43;62.73;100716.75;5073293;28;45553;-65
2022/04/06 01:43:46;;;;;;;;;1.00;1.00;;;;;23.44;62.74;100714.00;5067899;28;45429;-65
2022/04/06 01:46:12;;;;;;;;;4.00;2.00;;;;;23.43;62.77;100706.84;5058258;28;49431;-66
2022/04/06 01:52:11;;;;;;;;;2.00;1.33;;;;;23.42;62.59;100696.13;5072731;28;50426;-65
2022/04/06 01:54:06;;;;;;;;;3.00;1.00;;;;;23.43;62.62;100697.88;5076854;28;45308;-66
2022/04/06 01:56:32;;;;;;;;;2.67;1.00;;;;;23.42;62.50;100694.31;5075466;28;45910;-65
2022/04/06 01:58:57;;;;;;;;;3.67;1.67;;;;;23.40;62.70;100698.03;5070512;28;51141;-65
2022/04/06 02:01:23;;;;;;;;;0.67;0.67;;;;;23.41;62.34;100697.09;5070523;28;45506;-66
2022/04/06 02:03:48;;;;;;;;;1.67;0.33;;;;;23.40;62.44;100696.22;5029246;28;46171;-66
2022/04/06 02:06:13;;;;;;;;;3.33;1.33;;;;;23.41;62.48;100695.25;5067883;28;54195;-65
2022/04/06 02:08:39;;;;;;;;;3.00;1.33;;;;;23.40;62.35;100700.72;5075065;28;45208;-66
2022/04/06 02:11:04;;;;;;;;;3.33;1.00;;;;;23.37;62.29;100685.56;5076726;28;45533;-65
2022/04/06 02:13:30;;;;;;;;;2.00;1.00;;;;;23.36;62.15;100683.81;5052753;28;45443;-66
2022/04/06 02:15:55;;;;;;;;;1.00;1.00;;;;;23.39;62.14;100694.47;5058329;28;47444;-66
2022/04/06 02:18:20;;;;;;;;;1.00;1.00;;;;;23.39;62.28;100696.28;5076175;28;46953;-67
2022/04/06 02:20:46;;;;;;;;;2.67;1.00;;;;;23.35;62.12;100689.28;5051884;28;45502;-66
2022/04/06 02:23:11;;;;;;;;;3.00;0.00;;;;;23.39;62.09;100688.22;5069164;28;45555;-67
2022/04/06 02:25:37;;;;;;;;;3.00;0.00;;;;;23.39;61.87;100680.13;5069405;28;46701;-65
2022/04/06 02:28:02;;;;;;;;;3.00;1.00;;;;;23.39;62.17;100672.91;5069382;28;45420;-66
2022/04/06 02:30:28;;;;;;;;;7.00;1.00;;;;;23.39;62.03;100670.22;5072625;28;45449;-64
2022/04/06 02:32:53;;;;;;;;;4.00;1.00;;;;;23.38;62.09;100679.22;5070861;28;45577;-66
2022/04/06 02:35:18;;;;;;;;;5.67;1.00;;;;;23.41;62.14;100671.00;5073604;28;46616;-66
2022/04/06 02:37:44;;;;;;;;;1.33;0.67;;;;;23.40;62.23;100663.00;5063549;28;45355;-66
2022/04/06 02:40:11;;;;;;;;;2.00;0.67;;;;;23.40;62.13;100661.19;5073588;28;45834;-66
2022/04/06 02:42:36;;;;;;;;;1.33;1.00;;;;;23.38;61.80;100668.44;5067146;28;45461;-65
2022/04/06 02:45:02;;;;;;;;;3.33;0.00;;;;;23.40;61.96;100665.69;5073340;28;45684;-67
2022/04/06 02:47:27;;;;;;;;;5.33;0.00;;;;;23.39;61.96;100662.13;5069445;28;45385;-66
2022/04/06 02:49:53;;;;;;;;;2.00;0.00;;;;;23.41;61.88;100662.94;5073455;28;45327;-67
2022/04/06 02:52:18;;;;;;;;;4.00;1.33;;;;;23.41;61.85;100662.94;5073942;28;45357;-66
2022/04/06 02:54:44;;;;;;;;;0.67;0.67;;;;;23.40;61.88;100660.31;5071361;28;47237;-66
2022/04/06 02:57:09;;;;;;;;;4.33;0.67;;;;;23.41;61.84;100654.84;5069249;28;47016;-66
2022/04/06 02:59:34;;;;;;;;;2.00;0.00;;;;;23.43;61.75;100663.72;5072764;28;45296;-65
2022/04/06 03:02:00;;;;;;;;;1.00;1.00;;;;;23.45;61.89;100656.47;5064251;28;45621;-65
2022/04/06 03:04:25;;;;;;;;;0.67;0.00;;;;;23.46;62.01;100642.03;5069061;28;46372;-65
2022/04/06 03:06:51;;;;;;;;;2.67;1.00;;;;;23.47;61.99;100648.31;5068888;28;45486;-66
2022/04/06 03:09:16;;;;;;;;;6.67;1.00;;;;;23.47;61.66;100645.59;5053252;28;45247;-66
2022/04/06 03:11:41;;;;;;;;;4.00;1.33;;;;;23.49;61.91;100644.59;5072873;28;45473;-67
2022/04/06 03:14:07;;;;;;;;;1.33;0.00;;;;;23.51;61.70;100636.44;5069441;28;45636;-65
2022/04/06 03:16:32;;;;;;;;;3.33;1.00;;;;;23.51;61.60;100640.00;5074747;28;45398;-65
2022/04/06 03:18:58;;;;;;;;;0.00;0.00;;;;;23.51;61.51;100623.84;5067425;28;46141;-66
2022/04/06 03:21:23;;;;;;;;;4.33;1.00;;;;;23.50;61.69;100622.09;5066145;28;46090;-65
2022/04/06 03:23:48;;;;;;;;;0.67;0.00;;;;;23.53;61.77;100621.94;5072460;28;45620;-66
2022/04/06 03:26:15;;;;;;;;;1.00;1.00;;;;;23.51;61.91;100620.28;5072401;28;49909;-66
2022/04/06 03:28:40;;;;;;;;;2.33;0.00;;;;;23.51;61.48;100617.56;5069655;28;45548;-67
2022/04/06 03:31:06;;;;;;;;;3.33;0.00;;;;;23.50;61.57;100616.69;5049469;28;45574;-67
2022/04/06 03:33:31;;;;;;;;;1.33;1.00;;;;;23.50;61.80;100613.13;5068852;28;47021;-67
2022/04/06 03:35:57;;;;;;;;;1.33;0.00;;;;;23.52;61.42;100612.09;5071366;28;45284;-67
2022/04/06 03:38:22;;;;;;;;;1.00;0.00;;;;;23.52;61.50;100609.41;5072686;28;45612;-66
2022/04/06 03:40:48;;;;;;;;;1.33;1.00;;;;;23.50;61.35;100605.94;5071344;28;45440;-66
2022/04/06 03:43:14;;;;;;;;;1.67;1.00;;;;;23.50;61.27;100603.22;5068031;28;49872;-65
2022/04/06 03:45:40;;;;;;;;;2.00;0.33;;;;;23.49;61.55;100604.19;5066032;28;45447;-65
2022/04/06 03:48:05;;;;;;;;;5.00;0.00;;;;;23.47;61.46;100597.09;5069189;28;45404;-67
2022/04/06 03:50:31;;;;;;;;;3.00;0.67;;;;;23.48;61.54;100604.22;5072288;28;45473;-65
2022/04/06 03:52:56;;;;;;;;;2.00;0.00;;;;;23.47;61.64;100599.78;5073487;28;52441;-66
2022/04/06 03:55:22;;;;;;;;;1.33;0.00;;;;;23.46;61.50;100600.75;5066990;28;50694;-66
2022/04/06 03:57:47;;;;;;;;;5.33;1.00;;;;;23.46;61.62;100598.03;5069683;28;45481;-66
2022/04/06 04:00:14;;;;;;;;;3.00;0.00;;;;;23.45;61.61;100599.00;5074338;28;45684;-67
2022/04/06 04:02:39;;;;;;;;;0.00;0.00;;;;;23.41;61.58;100590.16;5074726;28;46265;-67
2022/04/06 04:05:05;;;;;;;;;1.00;0.67;;;;;23.42;61.66;100596.44;5071575;28;45341;-65
2022/04/06 04:07:37;;;;;;;;;2.67;0.00;;;;;23.44;61.43;100602.66;5072383;28;45419;-67
2022/04/06 04:10:06;;;;;;;;;2.00;0.00;;;;;23.42;61.46;100597.31;5073482;28;45342;-65
2022/04/06 04:12:32;;;;;;;;;5.00;1.00;;;;;23.40;61.88;100588.44;5052024;28;47469;-66
2022/04/06 04:14:58;;;;;;;;;2.00;0.00;;;;;23.41;61.70;100595.56;5077299;28;45408;-65
2022/04/06 04:17:23;;;;;;;;;3.00;1.00;;;;;23.40;61.62;100595.63;5068145;28;45623;-67
2022/04/06 04:19:49;;;;;;;;;1.33;0.00;;;;;23.40;61.81;100591.13;5070678;28;45644;-67
2022/04/06 04:22:14;;;;;;;;;7.00;0.00;;;;;23.42;61.28;100596.44;5075472;28;54102;-65
2022/04/06 04:24:39;;;;;;;;;2.33;0.33;;;;;23.39;61.76;100592.06;5074358;28;50376;-68
2022/04/06 04:27:05;;;;;;;;;1.00;0.00;;;;;23.39;61.75;100592.06;5061885;28;45214;-65
2022/04/06 04:29:30;;;;;;;;;3.00;0.00;;;;;23.40;61.51;100598.34;5061812;28;45453;-66
2022/04/06 04:31:56;;;;;;;;;2.00;0.00;;;;;23.39;61.71;100585.81;5078704;28;51778;-65
2022/04/06 04:34:21;;;;;;;;;5.00;0.67;;;;;23.39;61.80;100586.69;5078322;28;45353;-67
2022/04/06 04:36:46;;;;;;;;;0.00;0.00;;;;;23.39;61.78;100588.50;5072305;28;45496;-66
2022/04/06 04:39:12;;;;;;;;;4.33;0.00;;;;;23.37;61.47;100577.78;5073442;28;45417;-66
2022/04/06 04:41:37;;;;;;;;;2.67;1.00;;;;;23.38;61.69;100579.53;5077431;28;51242;-66
2022/04/06 04:44:03;;;;;;;;;4.00;0.00;;;;;23.36;61.55;100576.03;5078393;28;45454;-65
2022/04/06 04:46:28;;;;;;;;;4.33;0.00;;;;;23.36;61.67;100572.47;5044680;28;45518;-66
2022/04/06 04:48:54;;;;;;;;;4.33;0.00;;;;;23.37;62.02;100575.09;5050061;28;45535;-65
2022/04/06 04:51:19;;;;;;;;;3.00;0.00;;;;;23.37;62.04;100567.00;5066242;28;47261;-65
2022/04/06 04:53:45;;;;;;;;;0.00;0.00;;;;;23.37;61.70;100563.44;5072796;28;45497;-65
2022/04/06 04:56:10;;;;;;;;;3.33;0.00;;;;;23.35;61.56;100546.47;5071293;28;45493;-67
2022/04/06 04:58:36;;;;;;;;;4.00;0.00;;;;;23.37;61.55;100545.44;5072421;28;45588;-66
2022/04/06 05:01:01;;;;;;;;;3.67;0.33;;;;;23.37;61.36;100550.81;5077972;28;45856;-65
2022/04/06 05:03:27;;;;;;;;;3.33;0.00;;;;;23.36;61.61;100549.09;5076800;28;45472;-66
2022/04/06 05:05:53;;;;;;;;;0.33;0.00;;;;;23.36;61.77;100551.78;5077912;28;45255;-65
2022/04/06 05:08:21;;;;;;;;;1.00;1.00;;;;;23.35;61.61;100558.13;5071137;28;45465;-67
2022/04/06 05:10:47;;;;;;;;;2.00;1.00;;;;;23.36;61.31;100553.59;5070010;28;46869;-67
2022/04/06 05:13:14;;;;;;;;;3.00;0.00;;;;;23.34;61.33;100559.06;5075115;28;45189;-66
2022/04/06 05:15:39;;;;;;;;;2.00;0.00;;;;;23.35;61.32;100551.88;5070765;28;45415;-66
2022/04/06 05:18:05;;;;;;;;;1.00;0.00;;;;;23.34;61.38;100553.69;5076148;28;45463;-66
2022/04/06 05:20:31;;;;;;;;;0.33;0.00;;;;;23.31;61.43;100553.81;5076877;28;46360;-66
2022/04/06 05:22:56;;;;;;;;;1.33;0.00;;;;;23.35;61.41;100546.47;5075597;28;45431;-66
2022/04/06 05:25:21;;;;;;;;;0.67;0.00;;;;;23.35;61.39;100551.88;5073896;28;45513;-67
2022/04/06 05:27:51;;;;;;;;;0.00;0.00;;;;;23.35;61.25;100555.44;5059162;28;45712;-67
2022/04/06 05:30:18;;;;;;;;;4.33;0.00;;;;;23.35;61.29;100557.25;5075648;28;45869;-67
2022/04/06 05:32:43;;;;;;;;;1.67;0.00;;;;;23.34;61.26;100559.06;5072140;28;45528;-67
2022/04/06 05:35:10;;;;;;;;;1.33;0.00;;;;;23.36;61.28;100564.38;5074244;28;45516;-67
2022/04/06 05:37:36;;;;;;;;;4.00;0.00;;;;;23.35;61.39;100550.03;5068827;28;45596;-66
2022/04/06 05:40:03;;;;;;;;;3.00;0.00;;;;;23.37;60.85;100563.44;5072748;28;45807;-66
2022/04/06 05:42:28;;;;;;;;;4.67;0.33;;;;;23.36;61.30;100554.47;5037286;28;45558;-65
2022/04/06 05:44:54;;;;;;;;;1.67;0.00;;;;;23.36;61.17;100559.00;5072612;28;45546;-67
2022/04/06 05:47:19;;;;;;;;;1.33;0.00;;;;;23.33;61.20;100551.03;5076967;28;45501;-66
2022/04/06 05:49:45;;;;;;;;;4.00;0.33;;;;;23.38;61.09;100559.78;5075632;28;52831;-67
2022/04/06 05:52:10;;;;;;;;;0.00;0.00;;;;;23.36;60.92;100548.22;5074091;28;45328;-65
2022/04/06 05:54:36;;;;;;;;;1.00;1.00;;;;;23.36;60.90;100543.69;5072484;28;45222;-64
2022/04/06 05:57:02;;;;;;;;;0.00;0.00;;;;;23.38;60.81;100546.31;5068960;28;45494;-65
2022/04/06 05:59:27;;;;;;;;;3.00;0.00;;;;;23.38;61.05;100544.50;5070332;28;46200;-64
2022/04/06 06:01:52;;;;;;;;;1.33;0.67;;;;;23.37;60.68;100550.81;5050043;28;51257;-64
2022/04/06 06:04:18;;;;;;;;;3.00;1.00;;;;;23.38;60.89;100552.56;5073735;28;45993;-64
2022/04/06 06:06:43;;;;;;;;;2.00;0.00;;;;;23.40;61.19;100553.41;5067398;28;45501;-65
2022/04/06 06:09:09;;;;;;;;;4.67;1.00;;;;;23.42;60.74;100558.72;5066115;28;52127;-66
2022/04/06 06:11:34;;;;;;;;;4.33;0.33;;;;;23.45;60.95;100554.06;5052029;28;45919;-64
2022/04/06 06:13:59;;;;;;;;;3.00;1.00;;;;;23.47;60.71;100551.28;5074758;28;45445;-65
2022/04/06 06:16:25;;;;;;;;;1.00;0.00;;;;;23.46;60.60;100546.84;5074541;28;47433;-65
2022/04/06 06:18:50;;;;;;;;;0.67;0.33;;;;;23.50;60.76;100541.25;5071752;28;45855;-65
2022/04/06 06:21:16;;;;;;;;;1.00;1.00;;;;;23.53;60.74;100551.84;5055719;28;49921;-64
2022/04/06 06:23:41;;;;;;;;;1.67;1.00;;;;;23.55;60.52;100540.16;5053022;28;45461;-65
2022/04/06 06:26:07;;;;;;;;;3.33;1.33;;;;;23.56;60.78;100544.59;5074123;28;45455;-64
2022/04/06 06:28:32;;;;;;;;;4.67;0.00;;;;;23.59;60.58;100547.13;5071325;28;46501;-66
2022/04/06 06:30:57;;;;;;;;;1.00;0.33;;;;;23.60;60.69;100540.81;5069949;28;45317;-65
2022/04/06 06:33:23;;;;;;;;;1.00;1.00;;;;;23.62;60.35;100539.78;5075759;28;45586;-65
2022/04/06 06:35:48;;;;;;;;;1.00;1.00;;;;;23.63;60.40;100532.59;5068083;28;45610;-64
2022/04/06 06:38:14;;;;;;;;;4.00;0.00;;;;;23.66;60.27;100536.03;5072791;28;48321;-64
2022/04/06 06:40:41;;;;;;;;;1.67;1.00;;;;;23.66;60.41;100538.72;5059087;28;51182;-64
2022/04/06 06:43:06;;;;;;;;;3.33;1.33;;;;;23.67;60.08;100536.91;5029475;28;45800;-63
2022/04/06 06:45:31;;;;;;;;;6.33;1.33;;;;;23.70;60.29;100531.34;5067437;28;45366;-65
2022/04/06 06:47:57;;;;;;;;;2.33;0.00;;;;;23.71;60.03;100527.72;5072388;28;56023;-63
2022/04/06 06:50:23;;;;;;;;;4.67;2.00;;;;;23.71;59.74;100531.28;5069868;28;51092;-63
2022/04/06 06:52:48;;;;;;;;;3.00;1.33;;;;;23.72;59.60;100532.16;5066294;28;45486;-64
2022/04/06 06:55:14;;;;;;;;;2.00;2.00;;;;;23.68;59.52;100517.94;5066488;28;46135;-66
2022/04/06 06:57:39;;;;;;;;;4.00;1.00;;;;;23.72;59.46;100524.06;5071944;28;47289;-64
2022/04/06 07:00:05;;;;;;;;;3.00;1.00;;;;;23.72;59.14;100524.06;5065153;28;45439;-66
2022/04/06 07:02:31;;;;;;;;;4.67;1.00;;;;;23.71;59.56;100535.81;5070615;28;45438;-64
2022/04/06 07:04:56;;;;;;;;;1.00;1.00;;;;;23.71;59.36;100531.28;5074434;28;45715;-68
2022/04/06 07:07:22;;;;;;;;;3.00;1.00;;;;;23.68;59.67;100522.47;5068818;28;49167;-65
2022/04/06 07:09:47;;;;;;;;;4.00;4.00;;;;;23.69;59.21;100517.00;5064254;28;49812;-64
2022/04/06 07:12:13;;;;;;;;;4.33;2.00;;;;;23.68;59.33;100525.16;5065106;28;45393;-62
2022/04/06 07:14:38;;;;;;;;;2.67;1.00;;;;;23.67;59.32;100521.59;5069175;28;45680;-64
2022/04/06 07:17:04;;;;;;;;;3.00;1.00;;;;;23.68;59.14;100526.03;5044666;28;48384;-66
2022/04/06 07:19:29;;;;;;;;;4.00;1.00;;;;;23.68;59.21;100525.16;5065774;28;57011;-64
2022/04/06 07:21:54;;;;;;;;;9.33;4.33;;;;;23.66;57.42;100519.00;5069578;28;45269;-69
2022/04/06 07:24:20;;;;;;;;;1.33;1.33;;;;;23.46;51.83;100522.59;5049628;28;52611;-70
2022/04/06 07:26:45;;;;;;;;;4.33;2.67;;;;;23.06;48.83;100518.16;5060789;28;57777;-68
2022/04/06 07:29:13;;;;;;;;;4.67;1.67;;;;;;;;5064031;28;46153;-67
2022/04/06 07:31:38;;;;;;;;;7.33;2.00;;;;;22.30;47.90;100517.88;5053152;28;46574;-68
2022/04/06 07:34:04;;;;;;;;;7.33;2.00;;;;;21.94;47.42;100509.50;5073024;28;45604;-68
2022/04/06 07:36:31;;;;;;;;;3.00;1.00;;;;;21.63;48.41;100520.63;5071507;28;47015;-68
2022/04/06 07:38:57;;;;;;;;;1.67;0.67;;;;;21.31;47.69;100525.44;5069162;28;45447;-66
2022/04/06 07:41:25;;;;;;;;;4.33;1.00;;;;;20.86;47.45;100519.94;5071688;28;45494;-70
2022/04/06 07:43:51;;;;;;;;;5.00;2.00;;;;;20.43;47.95;100513.38;5057085;28;47147;-68
2022/04/06 07:46:16;;;;;;;;;1.00;1.00;;;;;20.03;48.99;100520.09;5188524;22;47380;-66
2022/04/06 07:48:44;;;;;;;;;1.33;1.00;;;;;19.71;49.25;100520.25;5082618;27;59545;-67
2022/04/06 07:51:10;;;;;;;;;1.00;1.00;;;;;19.43;50.82;100523.75;5076770;28;45454;-67
2022/04/06 07:53:36;;;;;;;;;1.67;0.00;;;;;19.25;51.12;100508.25;5079012;27;47228;-68
2022/04/06 07:56:01;;;;;;;;;4.33;1.00;;;;;19.10;51.07;100520.28;5076997;28;49719;-66
2022/04/06 07:58:27;;;;;;;;;2.00;2.00;;;;;18.92;52.36;100515.47;5056664;27;45503;-66
2022/04/06 08:00:52;;;;;;;;;2.67;1.67;;;;;18.72;51.58;100511.53;5045501;27;45563;-68
2022/04/06 08:03:17;;;;;;;;;3.67;1.67;;;;;18.57;52.04;100506.56;5068378;28;45536;-68
2022/04/06 08:05:43;;;;;;;;;0.33;0.33;;;;;18.39;53.52;100502.59;5079312;27;49833;-67
2022/04/06 08:08:08;;;;;;;;;1.33;1.33;;;;;18.26;53.14;100503.81;5057345;28;45285;-67
2022/04/06 08:10:34;;;;;;;;;9.67;2.67;;;;;18.16;53.08;100503.19;5076552;28;45402;-67
2022/04/06 08:12:59;;;;;;;;;4.67;1.67;;;;;18.17;53.85;100504.09;5075738;28;45466;-67
2022/04/06 08:15:25;;;;;;;;;1.00;1.00;;;;;18.17;54.25;100504.97;5076817;28;47677;-66
2022/04/06 08:17:50;;;;;;;;;1.00;1.00;;;;;18.15;54.63;100498.75;5054168;28;45388;-67
2022/04/06 08:20:16;;;;;;;;;4.00;1.00;;;;;18.12;53.94;100495.31;5076308;28;45605;-68
2022/04/06 08:22:43;;;;;;;;;1.33;1.00;;;;;18.09;54.42;100496.25;5074551;28;46628;-67
2022/04/06 08:25:09;;;;;;;;;2.33;0.33;;;;;18.08;54.63;100489.16;5051941;28;46436;-66
2022/04/06 08:27:39;;;;;;;;;1.00;1.00;;;;;18.00;54.49;100494.72;5068477;27;45481;-66
2022/04/06 08:30:05;;;;;;;;;2.67;1.33;;;;;17.87;54.87;100487.91;5072910;28;45479;-65
2022/04/06 08:32:30;;;;;;;;;1.67;1.67;;;;;17.86;55.78;100482.59;5054040;28;45610;-65
2022/04/06 08:34:56;;;;;;;;;1.33;1.00;;;;;17.86;55.43;100485.28;5071198;27;46163;-65
2022/04/06 08:37:21;;;;;;;;;5.67;1.33;;;;;17.82;54.91;100484.47;5076315;27;45424;-64
2022/04/06 08:39:47;;;;;;;;;2.00;2.00;;;;;17.78;56.07;100486.31;5074251;28;45978;-65
2022/04/06 08:42:12;;;;;;;;;1.00;1.00;;;;;17.72;55.86;100482.88;5076001;27;45683;-66
2022/04/06 08:44:38;;;;;;;;;2.67;1.67;;;;;17.70;55.81;100477.59;5053976;28;56976;-65
2022/04/06 08:47:05;;;;;;;;;6.67;1.00;;;;;17.85;64.44;100475.50;5072557;28;45883;-63
2022/04/06 08:49:30;;;;;;;;;3.00;1.00;;;;;18.10;66.00;100471.28;5075419;28;45590;-61
2022/04/06 08:51:56;;;;;;;;;2.00;1.00;;;;;18.46;66.56;100479.25;5076463;28;45331;-63
2022/04/06 08:54:22;;;;;;;;;2.00;0.33;;;;;18.76;66.47;100482.91;5075244;27;45843;-63
2022/04/06 08:56:47;;;;;;;;;4.33;0.33;;;;;19.06;66.31;100476.66;5033922;28;45965;-63
2022/04/06 08:59:13;;;;;;;;;3.33;0.33;;;;;19.33;66.06;100477.66;5060723;27;46382;-66
2022/04/06 09:01:38;;;;;;;;;2.67;0.67;;;;;19.59;66.21;100475.97;5075762;28;45293;-63
2022/04/06 09:04:04;;;;;;;;;2.67;1.00;;;;;19.79;65.64;100465.50;5074424;28;45773;-64
2022/04/06 09:06:38;;;;;;;;;2.33;1.67;;;;;20.01;65.35;100462.09;5076077;28;45375;-62
2022/04/06 09:09:03;;;;;;;;;2.00;0.67;;;;;20.27;65.26;100477.31;5055114;28;45379;-65
2022/04/06 09:11:29;;;;;;;;;3.33;0.67;;;;;20.43;64.58;100467.78;5073538;28;56411;-67
2022/04/06 09:13:59;;;;;;;;;1.00;1.00;;;;;20.62;64.48;100473.41;5072193;28;47472;-62
2022/04/06 09:16:27;;;;;;;;;1.67;0.00;;;;;20.81;64.65;100468.25;5049188;28;45657;-65
2022/04/06 09:18:52;;;;;;;;;6.00;1.00;;;;;20.95;64.46;100468.59;5072428;28;45475;-62
2022/04/06 09:21:18;;;;;;;;;2.00;0.33;;;;;21.08;63.66;100463.63;5075271;28;45830;-63
2022/04/06 09:23:45;;;;;;;;;1.00;1.00;;;;;21.20;64.05;100465.88;5050623;28;45586;-67
2022/04/06 09:26:13;;;;;;;;;2.00;0.00;;;;;21.33;63.60;100466.28;5056241;28;45559;-65
2022/04/06 09:28:42;;;;;;;;;7.33;1.00;;;;;21.40;63.03;100451.69;5074935;27;45753;-65
2022/04/06 09:31:08;;;;;;;;;1.33;0.67;;;;;21.54;62.84;100461.88;5065960;28;46433;-64
2022/04/06 09:33:34;;;;;;;;;3.00;1.00;;;;;21.63;63.00;100465.09;5073510;28;45727;-63
2022/04/06 09:35:59;;;;;;;;;2.33;1.00;;;;;21.73;62.94;100462.00;5074223;28;45465;-63
2022/04/06 09:38:27;;;;;;;;;4.00;2.00;;;;;21.83;62.83;100463.38;5074369;28;45530;-65
2022/04/06 09:41:14;;;;;;;;;1.67;1.00;;;;;21.89;62.16;100455.03;5068542;28;45720;-63
2022/04/06 09:43:40;;;;;;;;;0.00;0.00;;;;;21.97;62.67;100467.25;5053656;28;46600;-65
2022/04/06 09:49:08;;;;;;;;;2.00;1.00;;;;;22.14;62.25;100461.19;5072029;27;45520;-63
2022/04/06 09:51:33;;;;;;;;;3.00;1.00;;;;;22.20;62.41;100462.72;5055769;28;45901;-64
2022/04/06 09:54:01;;;;;;;;;1.00;1.00;;;;;22.23;62.24;100441.97;5074613;28;46400;-62
2022/04/06 09:56:26;;;;;;;;;2.67;1.67;;;;;22.30;61.83;100464.09;5037522;28;45285;-62
2022/04/06 09:58:51;;;;;;;;;1.33;0.33;;;;;22.38;61.73;100461.94;5051177;28;54487;-65
2022/04/06 10:01:17;;;;;;;;;2.00;1.00;;;;;22.43;61.62;100464.44;5074054;28;45970;-63
2022/04/06 10:03:53;;;;;;;;;3.33;1.00;;;;;22.47;61.77;100455.28;5071906;28;46850;-63
2022/04/06 10:06:19;;;;;;;;;4.00;1.00;;;;;22.52;62.13;100452.38;5074811;28;46080;-60
2022/04/06 10:08:44;;;;;;;;;0.00;0.00;;;;;22.56;61.72;100462.94;5074849;28;45509;-63
2022/04/06 10:11:10;;;;;;;;;4.00;1.33;;;;;22.60;61.88;100467.25;5071699;28;45789;-66
2022/04/06 10:13:36;;;;;;;;;1.00;1.00;;;;;22.63;61.45;100448.25;5057773;28;48217;-63
2022/04/06 10:16:01;;;;;;;;;2.33;1.00;;;;;22.67;61.45;100447.19;5054039;28;45329;-64
2022/04/06 10:18:27;;;;;;;;;2.00;1.00;;;;;22.70;61.41;100449.75;5054611;28;45602;-62
2022/04/06 10:21:04;;;;;;;;;2.33;2.00;;;;;22.75;61.17;100449.56;5047370;28;45514;-62
2022/04/06 10:24:07;;;;;;;;;2.00;2.00;;;;;22.77;60.84;100442.25;5053919;28;46691;-66
2022/04/06 10:30:09;;;;;;;;;5.33;0.00;;;;;22.82;60.99;100424.09;5074578;28;45363;-67
2022/04/06 10:32:48;;;;;;;;;0.00;0.00;;;;;22.86;60.79;100420.31;5067676;28;45601;-63
2022/04/06 10:35:16;;;;;;;;;3.33;1.33;;;;;22.89;60.65;100428.25;5066587;28;46061;-66
2022/04/06 10:38:07;;;;;;;;;3.00;2.00;;;;;22.91;60.44;100418.31;5069151;28;45348;-68
2022/04/06 10:40:45;;;;;;;;;2.00;2.00;;;;;22.92;60.95;100417.38;5064704;28;46224;-68
2022/04/06 10:43:39;;;;;;;;;3.67;1.00;;;;;22.94;60.56;100412.78;5068995;28;45568;-68
2022/04/06 10:46:14;;;;;;;;;3.00;2.00;;;;;22.95;60.65;100402.88;5073943;28;48041;-64
2022/04/06 10:48:55;;;;;;;;;2.00;1.00;;;;;22.96;60.64;100401.94;5071705;28;46392;-62
2022/04/06 10:51:30;;;;;;;;;3.67;1.00;;;;;22.97;60.67;100390.22;5046337;28;45444;-64
2022/04/06 10:53:56;;;;;;;;;6.33;2.00;;;;;22.98;60.34;100392.84;5043325;28;45576;-65
2022/04/06 10:56:22;;;;;;;;;1.33;1.33;;;;;22.99;60.83;100391.00;5073109;28;45775;-63
2022/04/06 10:58:53;;;;;;;;;2.00;2.00;;;;;23.03;60.65;100384.53;5043386;28;45387;-63
2022/04/06 11:01:19;;;;;;;;;3.00;1.00;;;;;23.05;60.73;100385.34;5073669;28;45619;-67
2022/04/06 11:03:56;;;;;;;;;0.00;0.00;;;;;23.06;60.49;100376.31;5050678;28;45577;-62
2022/04/06 11:06:52;;;;;;;;;2.00;0.67;;;;;23.12;60.45;100380.56;5068484;28;46069;-63
2022/04/06 11:12:24;;;;;;;;;4.00;1.33;;;;;23.17;60.37;100376.69;5068386;28;45300;-66
2022/04/06 11:14:50;;;;;;;;;1.33;1.00;;;;;23.19;60.53;100365.84;5060100;28;45579;-65
2022/04/06 11:17:38;;;;;;;;;4.33;2.00;;;;;23.23;60.35;100356.66;5067058;28;46267;-63
2022/04/06 11:20:12;;;;;;;;;3.33;2.67;;;;;23.26;60.33;100356.50;5076485;28;45447;-64
2022/04/06 11:22:39;;;;;;;;;5.00;1.00;;;;;23.27;60.39;100351.03;5071410;28;45536;-62
2022/04/06 11:25:09;;;;;;;;;3.00;1.00;;;;;23.31;60.10;100343.66;5077838;28;45569;-63
2022/04/06 11:27:36;;;;;;;;;4.00;1.00;;;;;23.30;60.39;100331.16;5069125;28;46757;-62
2022/04/06 11:30:03;;;;;;;;;3.67;2.00;;;;;23.35;60.25;100330.94;5050573;27;45588;-64
2022/04/06 11:32:29;;;;;;;;;4.67;1.00;;;;;23.38;60.18;100331.63;5079708;27;45560;-62
2022/04/06 11:35:01;;;;;;;;;5.67;2.00;;;;;23.39;60.07;100327.13;5077246;28;45731;-63
2022/04/06 11:37:27;;;;;;;;;7.00;2.00;;;;;23.41;60.13;100315.31;5083504;27;46653;-63